Terminal Aerodrome Forecast
Issued by NWS Mt. Holly, NJ

Home | Current Version | Previous Version | Text Only | Print | Product List | Glossary On
Versions: 1 2 3 4 5 6 7 8 9 10 11 12 13 14 15 16 17 18 19
870
FTUS41 KPHI 140600 AAA
TAFACY
TAF AMD
KACY 140600Z 1406/1506 21007KT P6SM OVC050
     FM141200 24009KT P6SM BKN035
     FM141300 25011KT P6SM BKN035
     FM141500 30016G25KT P6SM BKN035
     FM142200 32009KT P6SM SCT200=

USA.gov is the U.S. government's official web portal to all federal, state and local government web resources and services.